DEMGM EDQG-EDQW
Flight info
| Callsign | DEMGM |
|---|---|
| Flight time | 0h 56m |
| Altitude | 3500 |
| Route | DCT |
| Aircraft | PA28/L-SDFRY/C |
Departure
| Time | 2026-04-22 14:23 |
|---|---|
| Airport | Giebelstadt Airport (EDQG) |
Arrival
| Time | 2026-04-22 15:20 |
|---|---|
| Airport | Weiden in der Oberpfalz Airfield (EDQW) |
| Time | Latitude | Longitude | Altitude | Speed | Heading |
|---|---|---|---|---|---|
| 2026-04-22 13:53 | 49.65657 | 9.97572 | 981 ft | 0 kts | 159° |
| 2026-04-22 14:02 | 49.65658 | 9.97572 | 981 ft | 0 kts | 159° |
| 2026-04-22 14:06 | 49.65658 | 9.97571 | 981 ft | 0 kts | 159° |
| 2026-04-22 14:16 | 49.65661 | 9.97585 | 986 ft | 4 kts | 359° |
| 2026-04-22 14:16 | 49.65686 | 9.97616 | 982 ft | 10 kts | 81° |
| 2026-04-22 14:16 | 49.65683 | 9.97760 | 978 ft | 15 kts | 109° |
| 2026-04-22 14:16 | 49.65618 | 9.97873 | 977 ft | 13 kts | 155° |
| 2026-04-22 14:17 | 49.65535 | 9.97898 | 979 ft | 12 kts | 182° |
| 2026-04-22 14:17 | 49.65458 | 9.97881 | 981 ft | 11 kts | 193° |
| 2026-04-22 14:17 | 49.65382 | 9.97848 | 980 ft | 12 kts | 189° |
| 2026-04-22 14:17 | 49.65296 | 9.97822 | 980 ft | 13 kts | 192° |
| 2026-04-22 14:18 | 49.65204 | 9.97781 | 979 ft | 11 kts | 205° |
| 2026-04-22 14:18 | 49.65196 | 9.97777 | 978 ft | 0 kts | 193° |
| 2026-04-22 14:20 | 49.65060 | 9.97763 | 978 ft | 19 kts | 186° |
| 2026-04-22 14:20 | 49.64966 | 9.97692 | 981 ft | 17 kts | 259° |
| 2026-04-22 14:20 | 49.64933 | 9.97457 | 983 ft | 27 kts | 257° |
| 2026-04-22 14:21 | 49.64848 | 9.96859 | 983 ft | 29 kts | 258° |
| 2026-04-22 14:21 | 49.64810 | 9.96558 | 979 ft | 28 kts | 258° |
| 2026-04-22 14:22 | 49.64729 | 9.95987 | 982 ft | 26 kts | 258° |
| 2026-04-22 14:22 | 49.64700 | 9.95736 | 976 ft | 15 kts | 257° |
| 2026-04-22 14:22 | 49.64689 | 9.95735 | 979 ft | 5 kts | 77° |
| 2026-04-22 14:23 | 49.64730 | 9.96040 | 985 ft | 57 kts | 78° |
| 2026-04-22 14:23 | 49.64828 | 9.96768 | 1112 ft | 77 kts | 77° |
| 2026-04-22 14:23 | 49.64953 | 9.97512 | 1430 ft | 65 kts | 71° |
| 2026-04-22 14:23 | 49.65080 | 9.98283 | 1583 ft | 78 kts | 77° |
| 2026-04-22 14:24 | 49.65137 | 9.99077 | 1851 ft | 77 kts | 82° |
| 2026-04-22 14:24 | 49.65168 | 9.99940 | 2016 ft | 81 kts | 83° |
| 2026-04-22 14:24 | 49.65210 | 10.00821 | 2341 ft | 81 kts | 83° |
| 2026-04-22 14:24 | 49.65229 | 10.01642 | 2674 ft | 77 kts | 83° |
| 2026-04-22 14:25 | 49.65287 | 10.02499 | 2851 ft | 79 kts | 78° |
| 2026-04-22 14:25 | 49.65369 | 10.03358 | 2911 ft | 84 kts | 81° |
| 2026-04-22 14:25 | 49.65441 | 10.04271 | 3058 ft | 87 kts | 79° |
| 2026-04-22 14:25 | 49.65541 | 10.05251 | 3124 ft | 102 kts | 78° |
| 2026-04-22 14:26 | 49.65707 | 10.06357 | 3094 ft | 107 kts | 75° |
| 2026-04-22 14:26 | 49.65890 | 10.07480 | 3044 ft | 104 kts | 73° |
| 2026-04-22 14:26 | 49.66075 | 10.08513 | 3041 ft | 98 kts | 72° |
| 2026-04-22 14:26 | 49.66270 | 10.09515 | 2967 ft | 98 kts | 72° |
| 2026-04-22 14:27 | 49.66512 | 10.10500 | 2910 ft | 97 kts | 67° |
| 2026-04-22 14:27 | 49.66846 | 10.11350 | 2953 ft | 91 kts | 49° |
| 2026-04-22 14:27 | 49.67315 | 10.12018 | 2967 ft | 91 kts | 40° |
| 2026-04-22 14:27 | 49.67775 | 10.12642 | 3073 ft | 89 kts | 42° |
| 2026-04-22 14:28 | 49.68279 | 10.13232 | 3084 ft | 91 kts | 38° |
| 2026-04-22 14:28 | 49.68805 | 10.13782 | 3040 ft | 93 kts | 36° |
| 2026-04-22 14:28 | 49.69302 | 10.14402 | 3030 ft | 91 kts | 41° |
| 2026-04-22 14:28 | 49.69801 | 10.15012 | 3031 ft | 91 kts | 39° |
| 2026-04-22 14:29 | 49.70295 | 10.15626 | 3032 ft | 91 kts | 40° |
| 2026-04-22 14:29 | 49.70777 | 10.16190 | 3043 ft | 84 kts | 39° |
| 2026-04-22 14:29 | 49.71263 | 10.16768 | 3040 ft | 89 kts | 39° |
| 2026-04-22 14:29 | 49.71752 | 10.17344 | 3058 ft | 88 kts | 39° |
| 2026-04-22 14:30 | 49.72263 | 10.17966 | 3054 ft | 97 kts | 41° |
| 2026-04-22 14:30 | 49.72772 | 10.18590 | 3050 ft | 91 kts | 38° |
| 2026-04-22 14:30 | 49.73260 | 10.19179 | 3042 ft | 87 kts | 40° |
| 2026-04-22 14:30 | 49.73750 | 10.19777 | 3049 ft | 91 kts | 40° |
| 2026-04-22 14:31 | 49.74242 | 10.20384 | 3055 ft | 91 kts | 40° |
| 2026-04-22 14:31 | 49.74755 | 10.21021 | 3055 ft | 98 kts | 38° |
| 2026-04-22 14:31 | 49.75057 | 10.21920 | 3038 ft | 101 kts | 86° |
| 2026-04-22 14:31 | 49.75073 | 10.22948 | 3051 ft | 96 kts | 82° |
| 2026-04-22 14:32 | 49.75119 | 10.24023 | 3058 ft | 102 kts | 84° |
| 2026-04-22 14:32 | 49.75161 | 10.25090 | 3052 ft | 97 kts | 83° |
| 2026-04-22 14:32 | 49.75184 | 10.26110 | 3039 ft | 95 kts | 85° |
| 2026-04-22 14:32 | 49.75226 | 10.27138 | 3056 ft | 99 kts | 83° |
| 2026-04-22 14:33 | 49.75259 | 10.28215 | 3044 ft | 101 kts | 84° |
| 2026-04-22 14:33 | 49.75283 | 10.29277 | 3049 ft | 99 kts | 86° |
| 2026-04-22 14:33 | 49.75315 | 10.30323 | 3041 ft | 96 kts | 82° |
| 2026-04-22 14:33 | 49.75370 | 10.31347 | 3036 ft | 93 kts | 84° |
| 2026-04-22 14:34 | 49.75388 | 10.32358 | 3048 ft | 98 kts | 86° |
| 2026-04-22 14:34 | 49.75409 | 10.33430 | 3052 ft | 102 kts | 84° |
| 2026-04-22 14:34 | 49.75431 | 10.34545 | 3041 ft | 103 kts | 84° |
| 2026-04-22 14:34 | 49.75455 | 10.35619 | 3045 ft | 100 kts | 83° |
| 2026-04-22 14:35 | 49.75464 | 10.36706 | 3052 ft | 101 kts | 86° |
| 2026-04-22 14:35 | 49.75507 | 10.37793 | 3039 ft | 102 kts | 83° |
| 2026-04-22 14:35 | 49.75533 | 10.38847 | 3036 ft | 93 kts | 84° |
| 2026-04-22 14:35 | 49.75537 | 10.39812 | 3043 ft | 90 kts | 84° |
| 2026-04-22 14:36 | 49.75558 | 10.40780 | 3036 ft | 90 kts | 84° |
| 2026-04-22 14:36 | 49.75564 | 10.41731 | 3039 ft | 88 kts | 84° |
| 2026-04-22 14:36 | 49.75590 | 10.42689 | 3039 ft | 90 kts | 83° |
| 2026-04-22 14:36 | 49.75612 | 10.43675 | 3040 ft | 92 kts | 83° |
| 2026-04-22 14:37 | 49.75637 | 10.44661 | 3049 ft | 92 kts | 84° |
| 2026-04-22 14:37 | 49.75647 | 10.45688 | 3044 ft | 98 kts | 86° |
| 2026-04-22 14:37 | 49.75672 | 10.46717 | 3047 ft | 94 kts | 84° |
| 2026-04-22 14:37 | 49.75685 | 10.47715 | 3059 ft | 93 kts | 85° |
| 2026-04-22 14:38 | 49.75713 | 10.48709 | 3038 ft | 91 kts | 83° |
| 2026-04-22 14:38 | 49.75751 | 10.49705 | 3053 ft | 94 kts | 83° |
| 2026-04-22 14:38 | 49.75771 | 10.50721 | 3043 ft | 95 kts | 84° |
| 2026-04-22 14:38 | 49.75787 | 10.51717 | 3048 ft | 89 kts | 85° |
| 2026-04-22 14:39 | 49.75656 | 10.52694 | 3044 ft | 94 kts | 99° |
| 2026-04-22 14:39 | 49.75489 | 10.53689 | 3046 ft | 96 kts | 99° |
| 2026-04-22 14:39 | 49.75305 | 10.54675 | 3054 ft | 96 kts | 99° |
| 2026-04-22 14:40 | 49.75020 | 10.56329 | 3042 ft | 93 kts | 99° |
| 2026-04-22 14:40 | 49.74800 | 10.57557 | 3057 ft | 90 kts | 99° |
| 2026-04-22 14:40 | 49.74626 | 10.58546 | 3057 ft | 100 kts | 98° |
| 2026-04-22 14:40 | 49.74447 | 10.59563 | 3059 ft | 96 kts | 100° |
| 2026-04-22 14:41 | 49.74257 | 10.60530 | 3052 ft | 95 kts | 102° |
| 2026-04-22 14:41 | 49.74080 | 10.61517 | 3059 ft | 97 kts | 97° |
| 2026-04-22 14:41 | 49.73910 | 10.62546 | 3047 ft | 98 kts | 99° |
| 2026-04-22 14:41 | 49.73754 | 10.63559 | 3052 ft | 96 kts | 96° |
| 2026-04-22 14:42 | 49.73564 | 10.64565 | 3061 ft | 98 kts | 101° |
| 2026-04-22 14:42 | 49.73386 | 10.65624 | 3059 ft | 105 kts | 98° |
| 2026-04-22 14:42 | 49.73207 | 10.66690 | 3046 ft | 99 kts | 98° |
| 2026-04-22 14:42 | 49.73033 | 10.67683 | 3043 ft | 94 kts | 100° |
| 2026-04-22 14:43 | 49.72878 | 10.68676 | 3052 ft | 95 kts | 97° |
| 2026-04-22 14:43 | 49.72717 | 10.69708 | 3060 ft | 103 kts | 97° |
| 2026-04-22 14:43 | 49.72565 | 10.70796 | 3013 ft | 101 kts | 95° |
| 2026-04-22 14:43 | 49.72418 | 10.71783 | 3037 ft | 93 kts | 98° |
| 2026-04-22 14:44 | 49.72291 | 10.72772 | 3034 ft | 93 kts | 97° |
| 2026-04-22 14:44 | 49.72149 | 10.73758 | 3034 ft | 96 kts | 97° |
| 2026-04-22 14:44 | 49.71976 | 10.74759 | 3029 ft | 96 kts | 101° |
| 2026-04-22 14:44 | 49.71819 | 10.75737 | 3040 ft | 93 kts | 95° |
| 2026-04-22 14:45 | 49.71659 | 10.76721 | 3039 ft | 94 kts | 96° |
| 2026-04-22 14:45 | 49.71520 | 10.77694 | 3044 ft | 95 kts | 98° |
| 2026-04-22 14:45 | 49.71370 | 10.78717 | 3050 ft | 100 kts | 96° |
| 2026-04-22 14:45 | 49.71225 | 10.79770 | 3046 ft | 100 kts | 97° |
| 2026-04-22 14:46 | 49.71070 | 10.80829 | 3049 ft | 101 kts | 96° |
| 2026-04-22 14:46 | 49.70910 | 10.81884 | 3047 ft | 99 kts | 98° |
| 2026-04-22 14:46 | 49.70756 | 10.82923 | 3048 ft | 101 kts | 96° |
| 2026-04-22 14:46 | 49.70593 | 10.83984 | 3045 ft | 101 kts | 97° |
| 2026-04-22 14:47 | 49.70434 | 10.85027 | 3036 ft | 97 kts | 96° |
| 2026-04-22 14:47 | 49.70287 | 10.86036 | 3037 ft | 96 kts | 96° |
| 2026-04-22 14:47 | 49.70160 | 10.87062 | 3037 ft | 99 kts | 96° |
| 2026-04-22 14:47 | 49.70012 | 10.88126 | 3043 ft | 104 kts | 98° |
| 2026-04-22 14:48 | 49.69854 | 10.89213 | 3038 ft | 102 kts | 96° |
| 2026-04-22 14:48 | 49.69691 | 10.90285 | 3034 ft | 101 kts | 96° |
| 2026-04-22 14:48 | 49.69543 | 10.91333 | 3042 ft | 101 kts | 97° |
| 2026-04-22 14:48 | 49.69431 | 10.92371 | 3033 ft | 97 kts | 91° |
| 2026-04-22 14:49 | 49.69378 | 10.93415 | 3041 ft | 99 kts | 83° |
| 2026-04-22 14:49 | 49.69379 | 10.94492 | 3039 ft | 102 kts | 86° |
| 2026-04-22 14:49 | 49.69395 | 10.95597 | 3042 ft | 105 kts | 84° |
| 2026-04-22 14:49 | 49.69410 | 10.96710 | 3039 ft | 106 kts | 85° |
| 2026-04-22 14:50 | 49.69420 | 10.97846 | 3046 ft | 106 kts | 84° |
| 2026-04-22 14:50 | 49.69420 | 10.98980 | 3042 ft | 106 kts | 84° |
| 2026-04-22 14:50 | 49.69420 | 11.00122 | 3035 ft | 106 kts | 87° |
| 2026-04-22 14:50 | 49.69431 | 11.01222 | 3035 ft | 100 kts | 85° |
| 2026-04-22 14:51 | 49.69436 | 11.02285 | 3026 ft | 97 kts | 86° |
| 2026-04-22 14:51 | 49.69455 | 11.03357 | 3037 ft | 103 kts | 84° |
| 2026-04-22 14:51 | 49.69464 | 11.04413 | 3032 ft | 101 kts | 83° |
| 2026-04-22 14:51 | 49.69468 | 11.05484 | 3030 ft | 98 kts | 86° |
| 2026-04-22 14:52 | 49.69470 | 11.06534 | 3026 ft | 98 kts | 84° |
| 2026-04-22 14:52 | 49.69470 | 11.07597 | 3022 ft | 99 kts | 85° |
| 2026-04-22 14:52 | 49.69459 | 11.08646 | 3023 ft | 97 kts | 84° |
| 2026-04-22 14:52 | 49.69455 | 11.09669 | 3024 ft | 93 kts | 86° |
| 2026-04-22 14:53 | 49.69462 | 11.10661 | 3022 ft | 92 kts | 86° |
| 2026-04-22 14:53 | 49.69457 | 11.11644 | 3029 ft | 91 kts | 84° |
| 2026-04-22 14:53 | 49.69440 | 11.12647 | 3025 ft | 93 kts | 85° |
| 2026-04-22 14:53 | 49.69428 | 11.13635 | 3027 ft | 93 kts | 85° |
| 2026-04-22 14:54 | 49.69406 | 11.14643 | 3032 ft | 94 kts | 85° |
| 2026-04-22 14:54 | 49.69394 | 11.15665 | 3028 ft | 96 kts | 85° |
| 2026-04-22 14:54 | 49.69403 | 11.16663 | 3031 ft | 92 kts | 86° |
| 2026-04-22 14:54 | 49.69392 | 11.17651 | 3025 ft | 93 kts | 85° |
| 2026-04-22 14:55 | 49.69367 | 11.18650 | 3023 ft | 93 kts | 86° |
| 2026-04-22 14:55 | 49.69327 | 11.19661 | 3038 ft | 97 kts | 84° |
| 2026-04-22 14:55 | 49.69317 | 11.20716 | 3042 ft | 99 kts | 85° |
| 2026-04-22 14:55 | 49.69305 | 11.21764 | 3034 ft | 96 kts | 85° |
| 2026-04-22 14:56 | 49.69309 | 11.22800 | 3040 ft | 99 kts | 84° |
| 2026-04-22 14:56 | 49.69299 | 11.23863 | 3042 ft | 100 kts | 84° |
| 2026-04-22 14:56 | 49.69286 | 11.24935 | 3041 ft | 100 kts | 84° |
| 2026-04-22 14:56 | 49.69402 | 11.25975 | 3040 ft | 97 kts | 73° |
| 2026-04-22 14:57 | 49.69510 | 11.26986 | 3033 ft | 94 kts | 75° |
| 2026-04-22 14:57 | 49.69627 | 11.27964 | 3031 ft | 92 kts | 75° |
| 2026-04-22 14:57 | 49.69751 | 11.28940 | 3022 ft | 92 kts | 72° |
| 2026-04-22 14:57 | 49.69881 | 11.29895 | 3033 ft | 91 kts | 75° |
| 2026-04-22 14:58 | 49.70004 | 11.30846 | 3026 ft | 91 kts | 73° |
| 2026-04-22 14:58 | 49.70106 | 11.31804 | 3029 ft | 90 kts | 74° |
| 2026-04-22 14:58 | 49.70202 | 11.32769 | 3036 ft | 93 kts | 75° |
| 2026-04-22 14:58 | 49.70323 | 11.33760 | 3043 ft | 94 kts | 74° |
| 2026-04-22 14:59 | 49.70437 | 11.34770 | 3043 ft | 97 kts | 76° |
| 2026-04-22 14:59 | 49.70573 | 11.35787 | 3035 ft | 96 kts | 73° |
| 2026-04-22 14:59 | 49.70683 | 11.36795 | 3032 ft | 95 kts | 75° |
| 2026-04-22 14:59 | 49.70807 | 11.37788 | 3043 ft | 94 kts | 71° |
| 2026-04-22 15:00 | 49.70977 | 11.38783 | 3040 ft | 96 kts | 63° |
| 2026-04-22 15:00 | 49.71149 | 11.39416 | 3041 ft | 97 kts | 65° |
| 2026-04-22 15:00 | 49.71389 | 11.40377 | 3037 ft | 95 kts | 64° |
| 2026-04-22 15:00 | 49.71635 | 11.41332 | 3038 ft | 97 kts | 64° |
| 2026-04-22 15:01 | 49.71880 | 11.42301 | 3037 ft | 97 kts | 65° |
| 2026-04-22 15:01 | 49.72124 | 11.43252 | 3032 ft | 94 kts | 64° |
| 2026-04-22 15:01 | 49.72351 | 11.44178 | 3040 ft | 91 kts | 65° |
| 2026-04-22 15:01 | 49.72574 | 11.45093 | 3027 ft | 91 kts | 65° |
| 2026-04-22 15:02 | 49.72803 | 11.46032 | 3034 ft | 94 kts | 62° |
| 2026-04-22 15:02 | 49.73038 | 11.47006 | 3040 ft | 98 kts | 65° |
| 2026-04-22 15:02 | 49.73297 | 11.47990 | 3032 ft | 99 kts | 63° |
| 2026-04-22 15:02 | 49.73521 | 11.48957 | 3022 ft | 93 kts | 66° |
| 2026-04-22 15:03 | 49.73670 | 11.49917 | 3019 ft | 90 kts | 70° |
| 2026-04-22 15:03 | 49.73829 | 11.50880 | 3024 ft | 96 kts | 69° |
| 2026-04-22 15:03 | 49.74011 | 11.51869 | 3023 ft | 95 kts | 69° |
| 2026-04-22 15:03 | 49.74189 | 11.52834 | 3015 ft | 93 kts | 68° |
| 2026-04-22 15:04 | 49.74365 | 11.53811 | 3019 ft | 96 kts | 71° |
| 2026-04-22 15:04 | 49.74533 | 11.54812 | 3021 ft | 96 kts | 70° |
| 2026-04-22 15:04 | 49.74693 | 11.55769 | 3015 ft | 89 kts | 71° |
| 2026-04-22 15:04 | 49.74854 | 11.56674 | 3016 ft | 83 kts | 70° |
| 2026-04-22 15:05 | 49.74992 | 11.57530 | 3016 ft | 84 kts | 68° |
| 2026-04-22 15:05 | 49.75121 | 11.58425 | 3009 ft | 85 kts | 71° |
| 2026-04-22 15:05 | 49.75290 | 11.59307 | 3014 ft | 87 kts | 68° |
| 2026-04-22 15:05 | 49.75448 | 11.60236 | 3020 ft | 91 kts | 68° |
| 2026-04-22 15:06 | 49.75603 | 11.61175 | 3022 ft | 89 kts | 69° |
| 2026-04-22 15:06 | 49.75735 | 11.62117 | 3023 ft | 90 kts | 69° |
| 2026-04-22 15:06 | 49.75896 | 11.63105 | 3013 ft | 97 kts | 70° |
| 2026-04-22 15:06 | 49.76084 | 11.64111 | 3016 ft | 98 kts | 70° |
| 2026-04-22 15:07 | 49.76271 | 11.65126 | 2997 ft | 99 kts | 72° |
| 2026-04-22 15:07 | 49.76485 | 11.66125 | 2990 ft | 97 kts | 63° |
| 2026-04-22 15:07 | 49.76735 | 11.67077 | 3010 ft | 97 kts | 62° |
| 2026-04-22 15:07 | 49.76971 | 11.68065 | 3007 ft | 98 kts | 64° |
| 2026-04-22 15:08 | 49.77212 | 11.69058 | 3003 ft | 96 kts | 65° |
| 2026-04-22 15:08 | 49.77465 | 11.70030 | 3004 ft | 100 kts | 65° |
| 2026-04-22 15:08 | 49.77718 | 11.71025 | 3006 ft | 100 kts | 63° |
| 2026-04-22 15:08 | 49.77978 | 11.72007 | 3001 ft | 97 kts | 64° |
| 2026-04-22 15:09 | 49.78237 | 11.72960 | 3004 ft | 95 kts | 63° |
| 2026-04-22 15:09 | 49.78478 | 11.73918 | 3003 ft | 95 kts | 64° |
| 2026-04-22 15:09 | 49.78713 | 11.74893 | 2992 ft | 98 kts | 65° |
| 2026-04-22 15:09 | 49.78976 | 11.75871 | 2986 ft | 97 kts | 66° |
| 2026-04-22 15:10 | 49.79225 | 11.76816 | 3005 ft | 99 kts | 63° |
| 2026-04-22 15:10 | 49.79482 | 11.77818 | 3010 ft | 99 kts | 62° |
| 2026-04-22 15:10 | 49.79737 | 11.78814 | 2998 ft | 99 kts | 65° |
| 2026-04-22 15:10 | 49.79975 | 11.79792 | 3003 ft | 99 kts | 67° |
| 2026-04-22 15:11 | 49.80236 | 11.80782 | 2986 ft | 99 kts | 63° |
| 2026-04-22 15:11 | 49.80475 | 11.81764 | 2983 ft | 97 kts | 65° |
| 2026-04-22 15:11 | 49.80730 | 11.82708 | 2993 ft | 94 kts | 64° |
| 2026-04-22 15:11 | 49.80966 | 11.83625 | 2983 ft | 90 kts | 65° |
| 2026-04-22 15:12 | 49.81193 | 11.84509 | 2988 ft | 88 kts | 64° |
| 2026-04-22 15:12 | 49.81325 | 11.85461 | 2976 ft | 101 kts | 87° |
| 2026-04-22 15:12 | 49.81130 | 11.86512 | 2994 ft | 102 kts | 94° |
| 2026-04-22 15:12 | 49.80987 | 11.87602 | 2988 ft | 103 kts | 94° |
| 2026-04-22 15:13 | 49.80847 | 11.88669 | 2990 ft | 98 kts | 94° |
| 2026-04-22 15:13 | 49.80725 | 11.89724 | 2991 ft | 101 kts | 95° |
| 2026-04-22 15:13 | 49.80535 | 11.90765 | 2973 ft | 102 kts | 112° |
| 2026-04-22 15:13 | 49.80141 | 11.91661 | 2982 ft | 99 kts | 112° |
| 2026-04-22 15:14 | 49.79757 | 11.92553 | 2982 ft | 103 kts | 122° |
| 2026-04-22 15:14 | 49.79251 | 11.93360 | 2979 ft | 105 kts | 123° |
| 2026-04-22 15:14 | 49.78762 | 11.94209 | 2987 ft | 107 kts | 124° |
| 2026-04-22 15:14 | 49.78271 | 11.95066 | 2982 ft | 106 kts | 124° |
| 2026-04-22 15:15 | 49.77770 | 11.95935 | 2993 ft | 110 kts | 123° |
| 2026-04-22 15:15 | 49.77279 | 11.96831 | 2994 ft | 107 kts | 124° |
| 2026-04-22 15:15 | 49.76807 | 11.97737 | 2987 ft | 109 kts | 124° |
| 2026-04-22 15:15 | 49.76334 | 11.98619 | 2981 ft | 105 kts | 124° |
| 2026-04-22 15:16 | 49.75848 | 11.99476 | 2978 ft | 105 kts | 127° |
| 2026-04-22 15:16 | 49.75334 | 12.00273 | 2986 ft | 105 kts | 128° |
| 2026-04-22 15:16 | 49.74808 | 12.01076 | 2977 ft | 106 kts | 129° |
| 2026-04-22 15:16 | 49.74290 | 12.01853 | 2976 ft | 103 kts | 130° |
| 2026-04-22 15:17 | 49.73775 | 12.02649 | 2966 ft | 106 kts | 126° |
| 2026-04-22 15:17 | 49.73270 | 12.03447 | 2998 ft | 103 kts | 128° |
| 2026-04-22 15:17 | 49.72804 | 12.04288 | 3002 ft | 99 kts | 120° |
| 2026-04-22 15:17 | 49.72380 | 12.05106 | 2914 ft | 99 kts | 121° |
| 2026-04-22 15:18 | 49.71944 | 12.05890 | 2810 ft | 95 kts | 124° |
| 2026-04-22 15:18 | 49.71490 | 12.06623 | 2681 ft | 95 kts | 127° |
| 2026-04-22 15:18 | 49.71027 | 12.07324 | 2543 ft | 92 kts | 127° |
| 2026-04-22 15:18 | 49.70584 | 12.08021 | 2392 ft | 87 kts | 129° |
| 2026-04-22 15:19 | 49.70169 | 12.08677 | 2244 ft | 83 kts | 126° |
| 2026-04-22 15:19 | 49.69753 | 12.09294 | 2100 ft | 80 kts | 126° |
| 2026-04-22 15:19 | 49.69336 | 12.09886 | 1966 ft | 82 kts | 134° |
| 2026-04-22 15:19 | 49.68925 | 12.10463 | 1806 ft | 79 kts | 130° |
| 2026-04-22 15:20 | 49.68487 | 12.10965 | 1572 ft | 76 kts | 136° |
| 2026-04-22 15:20 | 49.68067 | 12.11458 | 1335 ft | 71 kts | 137° |
| 2026-04-22 15:20 | 49.67772 | 12.11783 | 1332 ft | 28 kts | 142° |
| 2026-04-22 15:20 | 49.67686 | 12.11886 | 1332 ft | 7 kts | 55° |
| 2026-04-22 15:21 | 49.67705 | 12.11865 | 1333 ft | 3 kts | 313° |
| 2026-04-22 15:21 | 49.67738 | 12.11823 | 1333 ft | 10 kts | 323° |
| 2026-04-22 15:21 | 49.67819 | 12.11734 | 1332 ft | 16 kts | 322° |
| 2026-04-22 15:21 | 49.67906 | 12.11637 | 1334 ft | 15 kts | 327° |
| 2026-04-22 15:22 | 49.68004 | 12.11526 | 1331 ft | 18 kts | 323° |
| 2026-04-22 15:22 | 49.68078 | 12.11451 | 1333 ft | 9 kts | 11° |
| 2026-04-22 15:22 | 49.68104 | 12.11511 | 1332 ft | 6 kts | 114° |
| 2026-04-22 15:22 | 49.68086 | 12.11533 | 1332 ft | 0 kts | 218° |